Aşgabat, Türkmenistan

Saat: 01:23 PM TMT Tarih: 05 Ağustos 2015 (GMT +0500)
Ashgabat | | Change Station
CLOSE
Current Station
Hava Meydanı
Location: Ashgabat,
Yükseklik: 689 ft
Nearby Weather Stations

Elev 689 ft 37.98 °N, 58.37 °E | Updated 23 minutes ago

Clear
Açık
106
Feels Like 106
N
13
Rüzgar Değişken Rüzgar from KKB

Bugün
High -- | Low -- F°
--% Chance of Precip.
Dün
High -- | Low -- F°
Precip. -- inç
6:12 AM 8:12 PM
Şişkin Ay, 69% visible
Basınç 29.74 inç
Görüş Uzaklığı 6.2 mil
Bulutlar Açık
Çiğ noktası 41
Nem oranı 11%
Yağış 0.00 inç
Kar Kalınlığı Not available.
10 out of 12
Pollen Not available.
Hava Kalitesi Not available.
Flu Activity Not available.
METAR UTAA 050800Z 33006MPS 300V010 9999 SKC 41/05 Q1007 NOSIG

More Conditions Fewer Conditions

Basınç 29.74 inç
Görüş Uzaklığı 6.2 mil
Bulutlar Açık
Çiğ noktası 41
Nem oranı 11%
Yağış 0.00 inç
Kar Kalınlığı Not available.
10 out of 12
Pollen Not available.
Hava Kalitesi Not available.
Flu Activity Not available.
METAR UTAA 050800Z 33006MPS 300V010 9999 SKC 41/05 Q1007 NOSIG

More Conditions Fewer Conditions

10-Day Weather Forecast

×

Almanac

Gökbilim

Aug. 05, 2015 Rise Set
Gerçek Zaman
Günlük Tan
Deniz Tanı
Geceyarısı Yıldız Zamanı
Ay
Görünür Işığın Uzunluğu
Günün Uzunluğu
Tomorrow will be .
, % of the Moon is Illuminated

Günün En Yüksekleri

Country Highs Country Lows

Community

WunderPhotos

Upload Photos

1,844,105 photos uploaded!

WunderBlogs® & News

Nearby

Hava Kalitesi

  Hava Kalitesi Hava Kalitesi Endeksi Kirletici
Not available.

Kar Kalınlığı

Station Depth Yükseklik

Earthquake Activity

Şehir Distance Mag. Time & Date
Minimum magnitude displayed is 2.5.

Coastal Water Temperatures

Yer Sıcaklık

Stations

Nearby Weather Stations

Station Location Sıcaklık Rüzgar Etkisi Çiğ noktası Nem oranı Rüzgar Precip. Elev Güncellenme Zamanı Biçim